Time;durP1;ratioP1;P1;durP2;ratioP2;P2;SDS_P1;SDS_P2;PMS_P1;PMS_P2;Temp;Humidity;BMP_temperature;BMP_pressure;BME280_temperature;BME280_humidity;BME280_pressure;Samples;Min_cycle;Max_cycle;Signal;HPM_P1;HPM_P2
2021/12/04 00:01:18;;;;;;;30.12;10.40;;;;;;;15.79;45.08;98747.69;4418407;32;20069;-69
2021/12/04 00:03:44;;;;;;;34.15;10.25;;;;;;;16.02;44.57;98737.00;4415608;32;20060;-69
2021/12/04 00:06:19;;;;;;;25.42;9.43;;;;;;;15.73;44.98;98727.06;4415750;32;20086;-69
2021/12/04 00:08:46;;;;;;;26.48;9.48;;;;;;;15.68;45.29;98718.59;4415204;32;20361;-69
2021/12/04 00:11:12;;;;;;;27.33;9.85;;;;;;;16.02;44.60;98717.91;4416807;32;20359;-69
2021/12/04 00:13:38;;;;;;;23.15;9.15;;;;;;;16.12;44.33;98711.91;4416019;32;20425;-69
2021/12/04 00:16:04;;;;;;;33.30;9.45;;;;;;;15.93;44.65;98698.34;4413170;32;20034;-69
2021/12/04 00:18:30;;;;;;;28.87;9.73;;;;;;;15.93;44.76;98695.50;4415408;32;20139;-69
2021/12/04 00:20:56;;;;;;;25.88;9.85;;;;;;;15.55;45.35;98690.81;4418869;32;20128;-69
2021/12/04 00:23:22;;;;;;;29.37;10.60;;;;;;;15.58;45.48;98698.28;4414999;32;20092;-69
2021/12/04 00:25:48;;;;;;;27.83;9.70;;;;;;;15.60;45.42;98686.41;4419301;32;20391;-69
2021/12/04 00:28:13;;;;;;;33.22;10.07;;;;;;;15.88;44.53;98696.34;4416512;32;20073;-69
2021/12/04 00:30:39;;;;;;;25.90;8.65;;;;;;;15.91;44.66;98691.66;4417682;32;20103;-69
2021/12/04 00:33:12;;;;;;;20.20;9.95;;;;;;;16.06;44.51;98694.16;4415644;32;20038;-69
2021/12/04 00:35:46;;;;;;;34.20;8.65;;;;;;;16.17;44.21;98685.59;4418029;32;20443;-69
2021/12/04 00:49:10;;;;;;;;;;;;;;;16.83;42.86;98663.12;4432510;32;20439;-70
2021/12/04 00:51:49;;;;;;;27.60;8.68;;;;;;;16.73;42.78;98644.91;4431126;32;19945;-70
2021/12/04 00:54:15;;;;;;;22.52;8.40;;;;;;;16.34;43.92;98649.31;4430371;32;20448;-70
2021/12/04 00:56:43;;;;;;;25.83;8.40;;;;;;;15.91;44.66;98634.94;4432289;32;20479;-70
2021/12/04 00:59:08;;;;;;;33.03;8.70;;;;;;;15.68;45.21;98639.22;4432457;32;20089;-69
2021/12/04 01:01:38;;;;;;;30.65;9.02;;;;;;;15.45;45.64;98640.59;4430563;32;20569;-69
2021/12/04 01:04:07;;;;;;;25.48;8.27;;;;;;;15.51;45.97;98632.84;4432845;32;20057;-69
2021/12/04 01:06:33;;;;;;;23.38;7.97;;;;;;;15.67;45.48;98640.50;4433590;32;20029;-69
2021/12/04 01:08:59;;;;;;;19.37;7.28;;;;;;;15.17;46.38;98642.75;4432295;32;20143;-69
2021/12/04 01:11:24;;;;;;;28.77;8.07;;;;;;;15.31;46.33;98636.00;4433079;32;20033;-69
2021/12/04 01:13:50;;;;;;;18.70;7.15;;;;;;;15.26;46.04;98636.78;4431942;32;20100;-69
2021/12/04 01:16:16;;;;;;;24.70;7.47;;;;;;;15.21;46.56;98631.91;4434580;32;20058;-69
2021/12/04 01:18:43;;;;;;;18.40;6.87;;;;;;;15.33;46.17;98620.03;4431004;32;20078;-69
2021/12/04 01:21:10;;;;;;;24.27;7.82;;;;;;;15.15;46.02;98612.09;4431859;32;20089;-69
2021/12/04 01:23:36;;;;;;;26.17;7.22;;;;;;;15.42;45.86;98588.56;4431649;32;20137;-69
2021/12/04 01:26:02;;;;;;;23.85;7.43;;;;;;;15.62;45.68;98602.38;4419582;32;20041;-69
2021/12/04 01:28:27;;;;;;;22.40;8.15;;;;;;;15.39;46.48;98595.28;4431256;32;20025;-69
2021/12/04 01:30:53;;;;;;;26.25;8.63;;;;;;;15.29;46.67;98598.91;4433918;32;20474;-69
2021/12/04 01:33:19;;;;;;;21.15;7.62;;;;;;;15.01;47.46;98590.53;4434521;32;20081;-69
2021/12/04 01:35:44;;;;;;;22.15;8.75;;;;;;;15.19;46.98;98587.09;4433262;32;20097;-70
2021/12/04 01:38:10;;;;;;;26.65;7.93;;;;;;;15.02;47.07;98585.63;4432404;32;20076;-69
2021/12/04 01:40:36;;;;;;;20.67;7.60;;;;;;;14.77;47.91;98581.84;4417052;32;20502;-69
2021/12/04 01:43:02;;;;;;;29.00;8.15;;;;;;;15.15;47.18;98580.94;4433985;32;20042;-70
2021/12/04 01:45:28;;;;;;;24.42;8.02;;;;;;;15.16;46.91;98585.31;4429703;32;20492;-70
2021/12/04 01:48:02;;;;;;;22.08;6.72;;;;;;;14.96;47.30;98576.37;4430856;32;20149;-70
2021/12/04 01:50:29;;;;;;;25.05;7.72;;;;;;;15.40;46.54;98567.72;4429214;32;20068;-69
2021/12/04 01:52:57;;;;;;;29.42;7.68;;;;;;;15.31;46.49;98576.50;4419576;32;20049;-69
2021/12/04 01:55:25;;;;;;;18.30;6.90;;;;;;;15.41;46.41;98572.09;4433070;32;20096;-70
2021/12/04 01:57:51;;;;;;;28.27;7.47;;;;;;;15.57;45.70;98568.37;4418134;32;20134;-70
2021/12/04 02:00:17;;;;;;;23.87;7.30;;;;;;;15.56;45.38;98570.44;4421277;32;20061;-70
2021/12/04 02:02:42;;;;;;;27.70;6.82;;;;;;;15.65;45.28;98566.53;4423995;32;20141;-70
2021/12/04 02:05:09;;;;;;;21.87;6.95;;;;;;;15.45;45.55;98555.56;4421810;32;20089;-70
2021/12/04 02:07:34;;;;;;;18.00;6.60;;;;;;;15.34;45.80;98544.28;4422306;32;20193;-70
2021/12/04 02:10:04;;;;;;;21.45;6.10;;;;;;;15.64;45.21;98548.75;4422030;32;20049;-69
2021/12/04 02:12:29;;;;;;;16.80;6.00;;;;;;;16.06;44.66;98546.63;4423156;32;20351;-69
2021/12/04 02:14:55;;;;;;;22.30;6.85;;;;;;;15.36;45.55;98545.28;4422203;32;20151;-69
2021/12/04 02:17:21;;;;;;;19.77;6.28;;;;;;;15.60;45.04;98548.28;4422039;32;20074;-69
2021/12/04 02:19:47;;;;;;;18.17;6.37;;;;;;;15.27;45.52;98534.28;4419416;32;20077;-69
2021/12/04 02:22:13;;;;;;;22.37;6.82;;;;;;;15.46;45.61;98531.59;4422648;32;20475;-70
2021/12/04 02:24:38;;;;;;;23.00;6.40;;;;;;;15.63;45.14;98537.94;4422513;32;20083;-70
2021/12/04 02:27:05;;;;;;;16.35;6.05;;;;;;;15.37;45.70;98540.44;4418734;32;20087;-70
2021/12/04 02:29:30;;;;;;;24.87;7.25;;;;;;;15.45;45.59;98530.84;4421778;32;20397;-70
2021/12/04 02:31:58;;;;;;;22.85;8.32;;;;;;;15.55;45.40;98540.56;4420478;32;20072;-69
2021/12/04 02:34:26;;;;;;;26.42;8.52;;;;;;;15.75;45.28;98539.41;4423072;32;21586;-69
2021/12/04 02:36:52;;;;;;;30.85;10.18;;;;;;;15.58;45.60;98538.72;4419546;32;20081;-69
2021/12/04 02:39:23;;;;;;;27.20;8.48;;;;;;;15.24;46.22;98528.88;4421389;32;20111;-69
2021/12/04 02:41:49;;;;;;;28.52;9.40;;;;;;;15.66;45.73;98531.22;4419612;32;20065;-69
2021/12/04 02:44:14;;;;;;;30.52;10.13;;;;;;;15.44;46.00;98523.63;4417697;32;20067;-68
2021/12/04 02:46:40;;;;;;;29.30;10.45;;;;;;;15.55;46.07;98525.62;4418961;32;20586;-68
2021/12/04 02:49:07;;;;;;;32.38;11.55;;;;;;;15.85;45.79;98529.25;4418268;32;20421;-68
2021/12/04 02:51:33;;;;;;;25.12;10.25;;;;;;;15.80;45.77;98524.41;4421029;32;20366;-68
2021/12/04 02:53:59;;;;;;;30.52;11.38;;;;;;;15.64;46.22;98520.41;4422429;32;20041;-67
2021/12/04 02:56:26;;;;;;;28.50;11.70;;;;;;;15.74;45.82;98520.88;4422770;32;20485;-67
2021/12/04 02:58:55;;;;;;;32.15;10.82;;;;;;;16.05;45.64;98511.84;4419944;32;20120;-67
2021/12/04 03:01:21;;;;;;;32.03;12.02;;;;;;;16.15;45.85;98515.88;4421091;32;20686;-68
2021/12/04 03:03:47;;;;;;;26.02;10.07;;;;;;;16.07;45.92;98500.72;4420316;32;20116;-68
2021/12/04 03:06:13;;;;;;;26.75;11.12;;;;;;;16.07;45.93;98508.47;4420188;32;20030;-68
2021/12/04 03:08:39;;;;;;;29.40;10.63;;;;;;;16.23;45.48;98493.34;4419345;32;20038;-69
2021/12/04 03:11:05;;;;;;;21.92;9.23;;;;;;;15.98;45.91;98489.69;4418695;32;20156;-69
2021/12/04 03:13:31;;;;;;;25.30;10.40;;;;;;;16.04;45.83;98487.59;4422130;32;20119;-68
2021/12/04 03:15:59;;;;;;;26.17;9.05;;;;;;;15.92;45.61;98469.91;4420032;32;20058;-69
2021/12/04 03:18:26;;;;;;;25.67;9.38;;;;;;;15.83;46.01;98472.28;4420163;32;20804;-68
2021/12/04 03:20:54;;;;;;;30.48;9.60;;;;;;;16.07;45.94;98477.25;4417637;32;20190;-69
2021/12/04 03:23:29;;;;;;;25.23;9.23;;;;;;;15.66;46.48;98472.47;4420060;32;20038;-69
2021/12/04 03:25:57;;;;;;;24.10;8.30;;;;;;;15.66;46.38;98469.63;4418718;32;20485;-69
2021/12/04 03:28:23;;;;;;;25.58;8.23;;;;;;;15.70;46.12;98475.00;4418230;32;20153;-69
2021/12/04 03:30:55;;;;;;;20.30;7.53;;;;;;;15.63;46.40;98482.03;4421514;32;20045;-69
2021/12/04 03:41:28;;;;;;;;;;;;;;;15.53;46.88;98482.88;4437598;32;20152;-69
2021/12/04 03:43:54;;;;;;;16.62;5.97;;;;;;;15.95;46.11;98482.25;4437612;32;19988;-69
2021/12/04 03:46:20;;;;;;;20.45;6.28;;;;;;;15.55;47.17;98486.72;4431689;32;20377;-69
2021/12/04 03:51:22;;;;;;;18.75;7.22;;;;;;;16.13;47.03;98500.69;3982331;32;15021977;-69
2021/12/04 03:53:49;;;;;;;18.00;6.72;;;;;;;16.13;47.03;98500.69;4431062;32;20630;-68
2021/12/04 03:56:20;;;;;;;15.10;5.37;;;;;;;15.76;47.52;98495.56;4431378;32;20864;-69
2021/12/04 03:58:46;;;;;;;7.62;3.47;;;;;;;15.81;47.13;98494.75;4433585;32;20085;-68
2021/12/04 04:01:11;;;;;;;9.30;2.95;;;;;;;14.67;48.78;98509.06;4430733;32;20090;-68
2021/12/04 04:03:37;;;;;;;4.43;1.80;;;;;;;15.05;47.95;98523.06;4430931;32;20042;-68
2021/12/04 04:06:03;;;;;;;3.67;1.35;;;;;;;14.67;48.25;98531.69;4434972;32;20089;-68
2021/12/04 04:08:29;;;;;;;3.97;1.12;;;;;;;14.97;47.70;98532.63;4431376;32;20025;-67
2021/12/04 04:10:55;;;;;;;4.30;1.05;;;;;;;14.57;47.51;98539.69;4433966;32;20067;-67
2021/12/04 04:13:21;;;;;;;1.98;0.57;;;;;;;14.52;47.51;98537.66;4433022;32;20067;-67
2021/12/04 04:15:47;;;;;;;3.90;0.93;;;;;;;14.33;47.94;98541.56;4426403;32;20118;-67
2021/12/04 04:18:13;;;;;;;1.92;0.50;;;;;;;14.21;48.08;98566.25;4435518;32;20025;-67
2021/12/04 04:20:41;;;;;;;2.70;0.60;;;;;;;13.90;48.00;98564.44;4434012;32;20034;-67
2021/12/04 04:23:07;;;;;;;5.28;0.60;;;;;;;13.92;47.66;98572.41;4431080;32;20084;-67
2021/12/04 04:25:32;;;;;;;2.80;0.47;;;;;;;14.30;47.09;98565.97;4434299;32;20081;-67
2021/12/04 04:27:58;;;;;;;3.25;0.40;;;;;;;14.04;46.92;98557.75;4434257;32;20105;-67
2021/12/04 04:30:24;;;;;;;2.15;0.40;;;;;;;14.01;46.66;98555.19;4430879;32;20084;-68
2021/12/04 04:32:51;;;;;;;1.20;0.60;;;;;;;14.18;46.43;98550.28;4434373;32;20099;-68
2021/12/04 04:35:21;;;;;;;0.32;0.17;;;;;;;14.16;46.26;98547.19;4433593;32;20045;-68
2021/12/04 04:57:36;;;;;;;2.90;0.30;;;;;;;14.57;45.57;98550.25;4435791;32;20469;-69
2021/12/04 05:13:24;;;;;;;2.20;0.30;;;;;;;13.91;45.88;98557.50;3982921;32;15022594;-69
2021/12/04 05:21:07;;;;;;;1.92;0.30;;;;;;;14.11;45.09;98556.44;3999952;31;15023771;-70
2021/12/04 05:23:38;;;;;;;3.67;0.30;;;;;;;13.76;45.74;98531.53;4448432;32;20084;-70
2021/12/04 05:26:06;;;;;;;2.70;0.40;;;;;;;13.30;46.03;98547.38;4451470;32;20073;-70
2021/12/04 05:28:32;;;;;;;3.17;0.25;;;;;;;13.48;46.54;98539.22;4452866;32;20056;-70
2021/12/04 05:30:58;;;;;;;6.00;0.50;;;;;;;13.22;46.53;98535.81;4451039;32;20052;-70
2021/12/04 05:33:25;;;;;;;4.20;0.62;;;;;;;13.04;46.61;98521.38;4451694;32;20061;-70
2021/12/04 05:35:51;;;;;;;2.42;0.60;;;;;;;13.43;45.99;98519.41;4451106;32;20110;-70
2021/12/04 05:38:18;;;;;;;3.62;0.70;;;;;;;13.78;45.88;98520.47;4452193;32;20490;-71
2021/12/04 05:40:45;;;;;;;5.95;0.70;;;;;;;13.92;46.11;98521.50;4451937;32;20129;-70
2021/12/04 05:43:12;;;;;;;12.65;1.00;;;;;;;13.92;45.36;98507.37;4452585;32;20053;-70
2021/12/04 05:45:43;;;;;;;7.37;0.95;;;;;;;14.08;45.80;98503.75;4453061;32;20350;-70
2021/12/04 05:48:13;;;;;;;3.60;0.50;;;;;;;14.08;45.82;98503.75;4448726;32;20045;-70
2021/12/04 05:50:57;;;;;;;7.97;0.85;;;;;;;14.16;45.32;98507.59;4454078;32;20100;-70
2021/12/04 05:53:26;;;;;;;5.62;0.55;;;;;;;13.91;44.66;98506.63;4448360;32;20125;-70
2021/12/04 05:55:53;;;;;;;4.53;0.52;;;;;;;13.88;45.04;98504.81;4447961;32;21272;-70
2021/12/04 05:58:29;;;;;;;3.58;0.52;;;;;;;13.95;45.06;98509.94;4452592;32;20086;-70
2021/12/04 06:00:58;;;;;;;3.40;0.30;;;;;;;14.15;45.03;98505.28;4437102;32;20852;-70
2021/12/04 06:03:25;;;;;;;3.17;0.57;;;;;;;14.42;45.08;98510.16;4451000;32;20129;-70
2021/12/04 06:05:51;;;;;;;5.18;0.80;;;;;;;14.51;44.97;98513.47;4449796;32;20029;-70
2021/12/04 06:08:19;;;;;;;7.62;1.00;;;;;;;14.25;45.29;98506.59;4452562;32;20428;-70
2021/12/04 06:10:47;;;;;;;4.25;0.65;;;;;;;14.35;45.30;98510.66;4450287;32;20064;-70
2021/12/04 06:13:12;;;;;;;9.13;1.62;;;;;;;14.38;45.40;98507.59;4453031;32;20608;-70
2021/12/04 06:15:38;;;;;;;3.97;0.65;;;;;;;14.13;45.71;98505.81;4453023;32;20067;-70
2021/12/04 06:18:04;;;;;;;10.25;1.00;;;;;;;14.49;45.11;98509.63;4450455;32;20042;-70
2021/12/04 06:23:16;;;;;;;12.60;1.33;;;;;;;14.71;45.47;98512.38;4451532;32;20088;-70
2021/12/04 06:25:41;;;;;;;10.73;1.40;;;;;;;14.52;45.63;98511.41;4451543;32;20565;-70
2021/12/04 06:28:07;;;;;;;12.63;1.65;;;;;;;14.44;46.14;98533.81;4451116;32;20133;-70
2021/12/04 06:30:36;;;;;;;8.65;1.80;;;;;;;14.38;46.12;98535.88;4447989;32;20076;-70
2021/12/04 06:33:04;;;;;;;17.35;1.77;;;;;;;14.21;45.75;98526.62;4438998;32;20033;-70
2021/12/04 06:35:31;;;;;;;12.57;2.08;;;;;;;14.06;45.41;98532.53;4443270;32;20041;-70
2021/12/04 06:37:58;;;;;;;16.17;2.28;;;;;;;13.95;45.31;98518.44;4436978;32;20085;-70
2021/12/04 06:40:26;;;;;;;15.02;2.25;;;;;;;14.55;44.79;98516.03;4427152;32;20468;-70
2021/12/04 06:42:55;;;;;;;25.17;2.33;;;;;;;14.47;44.85;98517.84;4440186;32;20109;-70
2021/12/04 06:45:21;;;;;;;13.77;2.37;;;;;;;14.69;44.33;98521.38;4440847;32;20094;-70
2021/12/04 06:47:52;;;;;;;19.15;2.47;;;;;;;14.82;44.13;98515.94;4439698;32;20076;-70
2021/12/04 06:50:28;;;;;;;18.30;2.90;;;;;;;14.80;44.05;98500.75;4441725;32;20441;-70
2021/12/04 06:52:56;;;;;;;18.58;3.30;;;;;;;14.76;43.68;98495.38;4440050;32;20521;-70
2021/12/04 06:55:27;;;;;;;18.23;3.12;;;;;;;14.68;43.90;98493.59;4428780;32;20068;-70
2021/12/04 06:57:53;;;;;;;22.48;3.17;;;;;;;14.66;43.86;98493.38;4441602;32;20041;-70
2021/12/04 07:00:19;;;;;;;13.80;3.17;;;;;;;14.65;43.81;98486.16;4439178;32;20073;-70
2021/12/04 07:02:45;;;;;;;17.37;2.75;;;;;;;14.27;44.35;98482.16;4440351;32;20044;-70
2021/12/04 07:05:11;;;;;;;17.73;3.10;;;;;;;14.06;44.92;98470.31;4442067;32;20065;-70
2021/12/04 07:07:37;;;;;;;20.08;2.33;;;;;;;14.02;44.61;98480.34;4427070;32;20080;-70
2021/12/04 07:10:03;;;;;;;23.05;2.35;;;;;;;14.06;44.29;98484.47;4438085;32;20089;-69
2021/12/04 07:12:29;;;;;;;10.40;1.55;;;;;;;13.61;44.91;98466.00;4437783;32;20068;-69
2021/12/04 07:14:55;;;;;;;19.52;1.98;;;;;;;13.48;45.02;98474.25;4439686;32;20407;-69
2021/12/04 07:17:21;;;;;;;17.33;2.50;;;;;;;13.22;45.01;98473.69;4441212;32;20482;-69
2021/12/04 07:19:46;;;;;;;19.70;2.62;;;;;;;13.38;45.02;98475.75;4439034;32;20558;-69
2021/12/04 07:22:12;;;;;;;11.57;2.03;;;;;;;13.30;45.02;98480.38;4438606;32;20040;-69
2021/12/04 07:24:38;;;;;;;17.25;2.58;;;;;;;13.14;45.52;98464.19;4440950;32;20100;-69
2021/12/04 07:27:05;;;;;;;19.45;2.58;;;;;;;13.20;45.33;98464.19;4440672;32;20072;-69
2021/12/04 07:29:32;;;;;;;18.12;2.25;;;;;;;13.03;45.44;98466.19;4439469;32;20118;-69
2021/12/04 07:31:57;;;;;;;10.90;1.80;;;;;;;12.72;46.02;98461.47;4441577;32;20113;-69
2021/12/04 07:34:23;;;;;;;18.73;2.30;;;;;;;12.48;46.15;98469.56;4440633;32;20077;-69
2021/12/04 07:36:49;;;;;;;18.30;2.72;;;;;;;12.41;46.13;98475.69;4438669;32;20034;-69
2021/12/04 07:39:15;;;;;;;17.60;2.17;;;;;;;12.51;46.20;98464.94;4437704;32;20125;-69
2021/12/04 07:41:42;;;;;;;13.68;1.85;;;;;;;12.74;45.82;98469.41;4439441;32;20041;-68
2021/12/04 07:44:10;;;;;;;12.05;1.40;;;;;;;12.06;47.03;98475.25;4437531;32;20037;-69
2021/12/04 07:46:37;;;;;;;16.60;1.92;;;;;;;12.45;46.47;98464.94;4438730;32;20033;-68
2021/12/04 07:49:03;;;;;;;14.00;1.85;;;;;;;12.55;46.61;98459.88;4436890;32;20120;-68
2021/12/04 07:51:29;;;;;;;17.27;2.45;;;;;;;12.30;46.70;98469.97;4439483;32;20070;-68
2021/12/04 07:53:55;;;;;;;16.58;2.55;;;;;;;12.26;46.82;98465.84;4439189;32;20037;-68
2021/12/04 07:56:21;;;;;;;12.98;2.25;;;;;;;12.50;46.68;98475.47;4439340;32;20386;-68
2021/12/04 07:58:47;;;;;;;13.62;2.40;;;;;;;12.44;46.33;98474.69;4439579;32;20045;-68
2021/12/04 08:01:13;;;;;;;19.58;2.20;;;;;;;12.43;47.19;98470.34;4436853;32;20209;-67
2021/12/04 08:03:39;;;;;;;10.63;2.05;;;;;;;12.11;47.79;98488.59;4440069;32;20100;-68
2021/12/04 08:06:05;;;;;;;18.52;3.08;;;;;;;12.32;47.44;98480.75;4439453;32;20077;-68
2021/12/04 08:08:32;;;;;;;19.42;3.12;;;;;;;12.30;47.73;98475.63;4439259;32;20029;-68
2021/12/04 08:10:59;;;;;;;14.40;2.92;;;;;;;12.18;47.80;98459.16;4438981;32;20375;-68
2021/12/04 08:13:25;;;;;;;16.15;3.05;;;;;;;11.96;47.90;98476.69;4440401;32;20081;-68
2021/12/04 08:15:51;;;;;;;15.27;3.58;;;;;;;12.04;47.97;98474.97;4436742;32;20067;-68
2021/12/04 08:18:17;;;;;;;15.48;3.65;;;;;;;12.02;48.16;98460.59;4439252;32;20103;-69
2021/12/04 08:20:45;;;;;;;11.43;3.78;;;;;;;11.96;48.49;98456.97;4437257;32;20077;-69
2021/12/04 08:23:11;;;;;;;8.45;2.85;;;;;;;11.84;49.04;98438.44;4437793;32;20029;-68
2021/12/04 08:25:38;;;;;;;13.57;3.30;;;;;;;11.54;49.90;98452.03;4436178;32;20100;-69
2021/12/04 08:28:05;;;;;;;18.02;4.90;;;;;;;11.84;49.15;98463.81;4440328;32;20221;-69
2021/12/04 08:30:33;;;;;;;12.68;4.47;;;;;;;11.74;50.17;98451.97;4437900;32;20111;-69
2021/12/04 08:33:00;;;;;;;16.50;4.53;;;;;;;11.67;49.85;98449.62;4437867;32;20080;-68
2021/12/04 08:35:28;;;;;;;11.93;2.92;;;;;;;11.80;50.03;98443.56;4437283;32;20046;-68
2021/12/04 08:37:58;;;;;;;10.13;3.03;;;;;;;11.43;50.98;98432.25;4440669;32;20128;-68
2021/12/04 08:40:25;;;;;;;23.00;3.78;;;;;;;11.48;50.90;98419.47;4438879;32;20076;-69
2021/12/04 08:42:51;;;;;;;12.63;3.85;;;;;;;11.72;50.49;98434.03;4436538;32;20029;-68
2021/12/04 08:45:18;;;;;;;18.23;3.83;;;;;;;11.75;50.57;98435.81;4438843;32;20466;-69
2021/12/04 08:47:45;;;;;;;13.48;3.87;;;;;;;11.53;50.80;98427.19;4439015;32;20316;-71
2021/12/04 08:50:14;;;;;;;10.80;3.47;;;;;;;11.65;50.44;98417.56;4440351;32;20149;-69
2021/12/04 08:52:41;;;;;;;14.85;3.25;;;;;;;11.68;50.32;98430.66;4439478;32;20053;-69
2021/12/04 08:55:09;;;;;;;16.20;3.70;;;;;;;11.54;51.25;98423.87;4438102;32;20308;-69
2021/12/04 08:57:35;;;;;;;13.68;4.28;;;;;;;11.75;51.23;98424.56;4434589;32;20384;-68
2021/12/04 09:00:05;;;;;;;13.02;4.28;;;;;;;11.51;51.45;98418.47;4426094;32;20073;-69
2021/12/04 09:02:33;;;;;;;9.60;3.47;;;;;;;12.09;50.67;98417.88;4439474;32;20128;-69
2021/12/04 09:04:58;;;;;;;11.73;3.70;;;;;;;11.77;50.89;98402.28;4427072;32;20382;-69
2021/12/04 09:07:24;;;;;;;7.45;3.10;;;;;;;11.65;50.86;98403.50;4437649;32;20081;-69
2021/12/04 09:09:55;;;;;;;9.98;2.95;;;;;;;11.42;50.91;98424.28;4438158;32;20051;-69
2021/12/04 09:12:25;;;;;;;11.12;2.90;;;;;;;11.17;51.36;98406.16;4439640;32;20042;-70
2021/12/04 09:14:51;;;;;;;8.40;3.45;;;;;;;11.60;50.73;98421.88;4438838;32;20099;-70
2021/12/04 09:17:18;;;;;;;10.52;4.15;;;;;;;11.71;50.46;98430.44;4434247;32;20429;-69
2021/12/04 09:19:45;;;;;;;14.77;4.93;;;;;;;11.73;51.06;98447.59;4438314;32;20204;-69
2021/12/04 09:22:16;;;;;;;10.60;4.68;;;;;;;12.06;51.11;98452.69;4436010;32;20061;-68
2021/12/04 09:24:47;;;;;;;12.88;5.03;;;;;;;11.93;50.94;98446.69;4438298;32;20073;-69
2021/12/04 09:27:22;;;;;;;13.40;5.18;;;;;;;11.93;51.88;98443.88;4438944;32;20441;-69
2021/12/04 09:30:03;;;;;;;14.23;4.90;;;;;;;11.87;51.55;98426.16;4424679;32;20462;-69
2021/12/04 09:35:31;;;;;;;11.82;5.22;;;;;;;12.02;51.44;98412.69;4438579;32;20438;-67
2021/12/04 10:00:22;;;;;;;11.32;3.70;;;;;;;12.36;51.09;98444.66;4436546;32;20097;-67
2021/12/04 10:14:22;;;;;;;8.02;3.33;;;;;;;12.33;50.72;98442.84;4431460;32;20684;-68
2021/12/04 10:22:49;;;;;;;13.30;3.22;;;;;;;12.96;49.49;98456.16;4434024;32;20451;-67
2021/12/04 10:33:56;;;;;;;7.43;2.78;;;;;;;13.09;50.25;98441.56;4437420;32;21270;-68
2021/12/04 10:36:32;;;;;;;10.10;4.10;;;;;;;12.29;51.18;98457.19;4435887;32;20072;-69
2021/12/04 10:38:59;;;;;;;10.15;3.60;;;;;;;12.69;50.71;98459.66;4433675;32;20084;-68
2021/12/04 10:41:43;;;;;;;7.93;3.90;;;;;;;12.39;51.31;98466.97;4432776;32;20177;-67
2021/12/04 10:44:18;;;;;;;10.55;3.70;;;;;;;12.66;50.89;98451.44;4435311;32;20033;-67
2021/12/04 10:49:51;;;;;;;5.82;2.70;;;;;;;12.30;51.75;98444.59;3981562;32;15021692;-68
2021/12/04 11:22:58;;;;;;;12.18;2.75;;;;;;;13.05;50.51;98340.19;4432715;32;20064;-69
2021/12/04 11:28:19;;;;;;;12.37;3.28;;;;;;;13.86;48.40;98329.28;3982051;32;15026958;-70
2021/12/04 11:44:52;;;;;;;11.20;1.92;;;;;;;13.60;48.94;98314.69;3969386;32;15023313;-68
2021/12/04 11:47:18;;;;;;;10.38;2.58;;;;;;;13.60;48.94;98314.69;4419970;32;20640;-68
2021/12/04 11:49:44;;;;;;;10.93;3.17;;;;;;;13.29;49.93;98306.53;4416979;32;20568;-68
2021/12/04 11:52:15;;;;;;;16.00;2.30;;;;;;;13.51;49.25;98286.75;4420601;32;20100;-68
2021/12/04 11:57:30;;;;;;;12.30;2.60;;;;;;;13.90;47.70;98281.72;3981897;32;15021460;-69
2021/12/04 12:00:09;;;;;;;9.73;2.12;;;;;;;13.90;47.70;98281.72;4430713;32;20025;-69
2021/12/04 12:02:34;;;;;;;8.10;1.75;;;;;;;14.02;47.13;98282.44;4431226;32;20137;-69
2021/12/04 12:05:00;;;;;;;10.90;2.00;;;;;;;13.47;47.95;98271.34;4435866;32;20089;-69
2021/12/04 12:07:29;;;;;;;13.85;2.75;;;;;;;13.59;48.10;98259.47;4431548;32;20056;-69
2021/12/04 12:10:13;;;;;;;9.32;1.50;;;;;;;14.17;47.41;98263.06;4428850;32;20430;-69
2021/12/04 12:12:42;;;;;;;14.65;2.00;;;;;;;13.86;47.85;98264.25;4429391;32;20097;-69
2021/12/04 12:15:31;;;;;;;15.00;3.30;;;;;;;14.18;47.24;98266.69;4432612;32;20073;-69
2021/12/04 12:18:10;;;;;;;18.25;2.25;;;;;;;14.48;46.57;98273.97;4434289;32;20533;-69
2021/12/04 12:20:41;;;;;;;10.38;2.10;;;;;;;14.27;47.04;98267.19;4433732;32;20438;-69
2021/12/04 12:23:11;;;;;;;10.40;2.00;;;;;;;13.79;48.46;98275.34;4429130;32;20094;-69
2021/12/04 12:26:18;;;;;;;7.05;1.67;;;;;;;13.59;49.16;98270.78;4431793;32;20115;-69
2021/12/04 12:36:33;;;;;;;11.02;3.05;;;;;;;13.23;50.39;98291.66;3980259;32;15023195;-70
2021/12/04 12:44:28;;;;;;;12.13;2.10;;;;;;;12.76;50.64;98281.38;3991276;31;15208783;-70
2021/12/04 12:52:14;;;;;;;13.07;1.92;;;;;;;12.64;51.75;98271.37;3980960;32;15024822;-69
2021/12/04 12:54:49;;;;;;;14.57;2.92;;;;;;;12.64;51.75;98271.37;4432773;32;20730;-69
2021/12/04 12:57:23;;;;;;;14.05;2.42;;;;;;;12.44;51.73;98276.47;4428602;32;20543;-69
2021/12/04 13:12:06;;;;;;;6.22;1.33;;;;;;;12.16;53.90;98327.16;4424199;32;20041;-69
2021/12/04 13:17:16;;;;;;;8.18;1.37;;;;;;;12.36;52.41;98307.22;3980997;32;15023125;-69
2021/12/04 13:19:47;;;;;;;6.60;1.23;;;;;;;12.30;52.24;98316.97;4434640;32;20087;-71
2021/12/04 13:22:17;;;;;;;8.07;1.48;;;;;;;12.20;52.06;98307.94;4435486;32;20045;-68
2021/12/04 13:24:47;;;;;;;10.80;1.60;;;;;;;11.71;52.61;98308.50;4432575;32;20061;-69
2021/12/04 13:29:48;;;;;;;9.95;1.10;;;;;;;12.56;51.60;98307.03;4429795;32;20049;-69
2021/12/04 13:32:17;;;;;;;4.95;0.80;;;;;;;12.61;51.28;98297.03;4434583;32;20101;-70
2021/12/04 13:34:44;;;;;;;10.40;1.40;;;;;;;12.66;51.12;98287.78;4435059;32;20108;-70
2021/12/04 13:37:12;;;;;;;6.28;1.40;;;;;;;12.70;50.85;98282.69;4435141;32;20520;-70
2021/12/04 13:39:41;;;;;;;8.63;1.12;;;;;;;12.87;50.93;98280.63;4434571;32;20132;-70
2021/12/04 13:42:07;;;;;;;5.30;0.95;;;;;;;12.81;50.98;98286.25;4433715;32;20127;-70
2021/12/04 13:44:35;;;;;;;2.67;0.60;;;;;;;12.46;51.70;98294.44;4434958;32;20053;-69
2021/12/04 13:47:08;;;;;;;2.72;0.60;;;;;;;12.52;51.47;98280.34;4433431;32;20135;-70
2021/12/04 13:52:12;;;;;;;4.62;0.73;;;;;;;12.43;52.34;98286.22;3975453;32;15026024;-69
2021/12/04 13:54:45;;;;;;;2.65;0.77;;;;;;;12.43;52.34;98286.22;4431103;32;20041;-68
2021/12/04 13:57:14;;;;;;;5.15;0.95;;;;;;;12.50;51.60;98274.44;4430578;32;20045;-69
2021/12/04 13:59:41;;;;;;;2.30;0.40;;;;;;;12.82;51.43;98270.13;4431351;32;20065;-69
2021/12/04 14:02:19;;;;;;;2.08;0.50;;;;;;;12.65;51.29;98270.09;4430206;32;20085;-69
2021/12/04 14:04:55;;;;;;;4.60;0.50;;;;;;;12.09;51.53;98274.84;4431970;32;20065;-68
2021/12/04 14:07:21;;;;;;;3.90;0.55;;;;;;;11.94;52.36;98276.34;4431328;32;20091;-68
2021/12/04 14:09:47;;;;;;;2.62;0.35;;;;;;;12.00;52.48;98257.41;4430193;32;20052;-68
2021/12/04 14:12:13;;;;;;;5.60;0.68;;;;;;;12.06;52.15;98256.13;4431964;32;20144;-68
2021/12/04 14:14:39;;;;;;;2.37;0.50;;;;;;;12.08;52.35;98258.44;4431412;32;20030;-68
2021/12/04 14:17:11;;;;;;;1.48;0.40;;;;;;;12.00;52.26;98265.88;4431600;32;20033;-69
2021/12/04 14:19:38;;;;;;;5.43;0.40;;;;;;;12.28;52.27;98255.44;4428133;32;20146;-68
2021/12/04 14:24:57;;;;;;;6.50;0.70;;;;;;;12.58;52.48;98233.91;3986396;32;15141316;-68
2021/12/04 14:27:26;;;;;;;3.70;0.90;;;;;;;12.58;52.48;98233.91;4446812;32;20033;-69
2021/12/04 14:29:56;;;;;;;5.15;1.45;;;;;;;11.89;54.03;98221.53;4445406;32;20080;-69
2021/12/04 14:32:25;;;;;;;2.95;0.77;;;;;;;11.80;53.26;98237.88;4446019;32;20029;-68
2021/12/04 14:35:00;;;;;;;5.50;0.95;;;;;;;11.96;53.10;98232.28;4445411;32;20748;-71
2021/12/04 14:37:27;;;;;;;1.67;0.47;;;;;;;12.12;52.56;98242.06;4450625;32;20423;-68
2021/12/04 14:39:54;;;;;;;2.20;0.68;;;;;;;11.87;52.85;98220.47;4442699;32;20429;-70
2021/12/04 14:42:27;;;;;;;3.45;1.10;;;;;;;12.05;53.00;98203.09;4444185;32;20456;-68
2021/12/04 14:44:58;;;;;;;6.25;1.15;;;;;;;12.19;52.67;98215.44;4431993;32;20067;-68
2021/12/04 14:47:30;;;;;;;10.52;1.80;;;;;;;12.32;52.29;98215.69;4446308;32;20056;-69
2021/12/04 14:50:00;;;;;;;10.38;1.90;;;;;;;12.58;51.79;98217.00;4443987;32;20073;-69
2021/12/04 14:52:30;;;;;;;5.40;1.65;;;;;;;12.42;52.27;98228.28;4447382;32;21376;-69
2021/12/04 14:54:57;;;;;;;6.90;1.10;;;;;;;12.45;52.34;98211.09;4445240;32;20136;-69
2021/12/04 14:57:26;;;;;;;7.87;1.23;;;;;;;12.32;52.91;98205.19;4445014;32;20018;-69
2021/12/04 15:00:10;;;;;;;7.22;1.15;;;;;;;12.34;53.05;98215.97;4429177;32;20028;-69